createdAt,value
2018-12-07T00:00:55.247Z,14.30
2018-12-07T00:01:56.204Z,14.30
2018-12-07T00:02:57.167Z,14.30
2018-12-07T00:03:58.231Z,14.30
2018-12-07T00:04:59.201Z,14.40
2018-12-07T00:06:00.376Z,14.30
2018-12-07T00:07:01.341Z,14.40
2018-12-07T00:08:02.300Z,14.40
2018-12-07T00:09:04.684Z,14.40
2018-12-07T00:10:05.868Z,14.40
2018-12-07T00:11:07.107Z,14.40
2018-12-07T00:12:08.101Z,14.40
2018-12-07T00:13:09.168Z,14.40
2018-12-07T00:14:10.339Z,14.40
2018-12-07T00:15:11.509Z,14.40
2018-12-07T00:16:12.567Z,14.40
2018-12-07T00:17:13.523Z,14.40
2018-12-07T00:18:14.488Z,14.40
2018-12-07T00:19:15.483Z,14.40
2018-12-07T00:20:16.651Z,14.40
2018-12-07T00:21:17.722Z,14.40
2018-12-07T00:22:18.770Z,14.40
2018-12-07T00:23:19.743Z,14.40
2018-12-07T00:24:20.917Z,14.40
2018-12-07T00:25:22.168Z,14.40
2018-12-07T00:26:23.128Z,14.40
2018-12-07T00:27:24.087Z,14.40
2018-12-07T00:28:25.058Z,14.40
2018-12-07T00:29:26.123Z,14.40
2018-12-07T00:30:27.080Z,14.40
2018-12-07T00:31:28.757Z,14.40
2018-12-07T00:32:29.895Z,14.40
2018-12-07T00:33:30.862Z,14.40
2018-12-07T00:34:39.040Z,14.30
2018-12-07T00:35:40.197Z,14.40
2018-12-07T00:36:41.160Z,14.40
2018-12-07T00:37:42.160Z,14.40
2018-12-07T00:38:43.228Z,14.20
2018-12-07T00:39:44.187Z,14.30
2018-12-07T00:40:46.264Z,14.30
2018-12-07T00:41:47.358Z,14.30
2018-12-07T00:42:48.315Z,14.30
2018-12-07T00:43:49.391Z,14.30
2018-12-07T00:44:50.467Z,14.30
2018-12-07T00:45:51.543Z,14.30
2018-12-07T00:46:52.805Z,14.30
2018-12-07T00:47:53.859Z,14.30
2018-12-07T00:48:54.839Z,14.30
2018-12-07T00:49:55.823Z,14.30
2018-12-07T00:50:56.991Z,14.30
2018-12-07T00:51:58.052Z,14.30
2018-12-07T00:52:59.020Z,14.20
2018-12-07T00:53:59.984Z,14.30
2018-12-07T00:55:01.056Z,14.30
2018-12-07T00:56:02.219Z,14.20
2018-12-07T00:57:03.396Z,14.20
2018-12-07T00:58:04.657Z,14.30
2018-12-07T00:59:05.614Z,14.20
2018-12-07T01:00:06.911Z,14.20
2018-12-07T01:01:07.994Z,14.10
2018-12-07T01:02:09.060Z,14.30
2018-12-07T01:03:10.033Z,14.20
2018-12-07T01:04:11.311Z,14.20
2018-12-07T01:05:12.485Z,14.20
2018-12-07T01:06:20.419Z,14.20
2018-12-07T01:07:21.388Z,14.20
2018-12-07T01:08:22.359Z,14.20
2018-12-07T01:09:23.311Z,14.20
2018-12-07T01:10:24.264Z,14.20
2018-12-07T01:11:25.234Z,14.20
2018-12-07T01:12:26.691Z,14.20
2018-12-07T01:13:27.661Z,14.20
2018-12-07T01:14:28.736Z,14.20
2018-12-07T01:15:29.912Z,14.20
2018-12-07T01:16:30.967Z,14.20
2018-12-07T01:17:31.935Z,14.20
2018-12-07T01:18:32.876Z,14.20
2018-12-07T01:19:33.937Z,14.20
2018-12-07T01:20:34.991Z,14.20
2018-12-07T01:21:36.057Z,14.20
2018-12-07T01:22:37.127Z,14.20
2018-12-07T01:23:38.193Z,14.20
2018-12-07T01:24:39.159Z,14.20
2018-12-07T01:25:40.127Z,14.10
2018-12-07T01:26:41.084Z,14.20
2018-12-07T01:27:42.039Z,14.20
2018-12-07T01:28:42.996Z,14.30
2018-12-07T01:29:43.963Z,14.30
2018-12-07T01:30:45.023Z,14.30
2018-12-07T01:31:46.104Z,14.30
2018-12-07T01:32:47.069Z,14.30
2018-12-07T01:33:48.034Z,14.30
2018-12-07T01:34:49.004Z,14.30
2018-12-07T01:35:49.970Z,14.30
2018-12-07T01:36:50.939Z,14.30
2018-12-07T01:37:51.891Z,14.30
2018-12-07T01:38:52.857Z,14.30
2018-12-07T01:39:53.855Z,14.30
2018-12-07T01:40:54.820Z,14.40
2018-12-07T01:41:55.787Z,14.40
2018-12-07T01:42:56.855Z,14.40
2018-12-07T01:43:57.930Z,14.50
2018-12-07T01:44:58.903Z,14.40
2018-12-07T01:45:59.875Z,14.40
2018-12-07T01:47:00.848Z,14.50
2018-12-07T01:48:01.915Z,14.50
2018-12-07T01:49:02.993Z,14.50
2018-12-07T01:50:04.184Z,14.50
2018-12-07T01:51:05.315Z,14.50
2018-12-07T01:52:06.286Z,14.50
2018-12-07T01:53:07.233Z,14.50
2018-12-07T01:54:08.191Z,14.50
2018-12-07T01:55:09.364Z,14.50
2018-12-07T01:56:10.428Z,14.50
2018-12-07T01:57:11.488Z,14.50
2018-12-07T01:58:12.560Z,14.50
2018-12-07T01:59:13.627Z,14.50
2018-12-07T02:00:14.691Z,14.60
2018-12-07T02:01:15.639Z,14.50
2018-12-07T02:02:16.710Z,14.50
2018-12-07T02:03:17.676Z,14.50
2018-12-07T02:04:18.643Z,14.50
2018-12-07T02:05:19.703Z,14.50
2018-12-07T02:06:20.755Z,14.60
2018-12-07T02:07:29.643Z,14.50
2018-12-07T02:08:30.652Z,14.50
2018-12-07T02:09:31.715Z,14.50
2018-12-07T02:10:32.679Z,14.50
2018-12-07T02:11:34.344Z,14.50
2018-12-07T02:12:35.457Z,14.50
2018-12-07T02:13:36.540Z,14.60
2018-12-07T02:14:37.503Z,14.50
2018-12-07T02:15:38.461Z,14.50
2018-12-07T02:16:39.419Z,14.60
2018-12-07T02:17:40.500Z,14.60
2018-12-07T02:18:41.565Z,14.50
2018-12-07T02:19:42.635Z,14.60
2018-12-07T02:20:43.613Z,14.60
2018-12-07T02:21:44.572Z,14.60
2018-12-07T02:22:45.635Z,14.60
2018-12-07T02:23:46.618Z,14.60
2018-12-07T02:24:47.584Z,14.60
2018-12-07T02:25:48.657Z,14.60
2018-12-07T02:26:49.619Z,14.60
2018-12-07T02:27:56.640Z,14.60
2018-12-07T02:28:57.655Z,14.60
2018-12-07T02:29:58.617Z,14.60
2018-12-07T02:30:59.676Z,14.70
2018-12-07T02:32:00.848Z,14.60
2018-12-07T02:33:01.935Z,14.60
2018-12-07T02:34:02.903Z,14.60
2018-12-07T02:35:04.090Z,14.60
2018-12-07T02:36:05.152Z,14.60
2018-12-07T02:37:06.116Z,14.60
2018-12-07T02:38:07.188Z,14.60
2018-12-07T02:39:08.183Z,14.60
2018-12-07T02:40:09.245Z,14.60
2018-12-07T02:41:10.417Z,14.60
2018-12-07T02:42:11.376Z,14.60
2018-12-07T02:43:12.339Z,14.60
2018-12-07T02:44:13.396Z,14.60
2018-12-07T02:45:14.676Z,14.60
2018-12-07T02:46:15.632Z,14.60
2018-12-07T02:47:16.805Z,14.60
2018-12-07T02:48:17.971Z,14.70
2018-12-07T02:49:19.036Z,14.60
2018-12-07T02:50:19.992Z,14.70
2018-12-07T02:51:20.977Z,14.60
2018-12-07T02:52:21.945Z,14.60
2018-12-07T02:53:23.000Z,14.70
2018-12-07T02:54:24.077Z,14.70
2018-12-07T02:55:25.239Z,14.70
2018-12-07T02:56:26.304Z,14.70
2018-12-07T02:57:27.376Z,14.70
2018-12-07T02:58:28.331Z,14.70
2018-12-07T02:59:29.398Z,14.70
2018-12-07T03:00:30.860Z,14.70
2018-12-07T03:01:31.920Z,14.70
2018-12-07T03:02:32.962Z,14.70
2018-12-07T03:03:33.948Z,14.70
2018-12-07T03:04:34.904Z,14.70
2018-12-07T03:05:35.871Z,14.60
2018-12-07T03:06:36.923Z,14.70
2018-12-07T03:07:37.903Z,14.70
2018-12-07T03:08:38.879Z,14.70
2018-12-07T03:09:39.947Z,14.70
2018-12-07T03:10:41.013Z,14.70
2018-12-07T03:11:41.979Z,14.60
2018-12-07T03:12:42.936Z,14.70
2018-12-07T03:13:44.033Z,14.70
2018-12-07T03:14:45.314Z,14.70
2018-12-07T03:15:46.271Z,14.70
2018-12-07T03:16:47.432Z,14.70
2018-12-07T03:17:48.504Z,14.70
2018-12-07T03:18:49.463Z,14.80
2018-12-07T03:19:50.435Z,14.80
2018-12-07T03:20:51.392Z,14.80
2018-12-07T03:21:52.449Z,14.80
2018-12-07T03:22:53.409Z,14.80
2018-12-07T03:23:54.377Z,14.80
2018-12-07T03:24:55.387Z,14.80
2018-12-07T03:25:56.471Z,14.80
2018-12-07T03:26:57.533Z,14.80
2018-12-07T03:27:58.507Z,14.80
2018-12-07T03:28:59.558Z,14.90
2018-12-07T03:30:00.536Z,14.90
2018-12-07T03:31:01.738Z,14.90
2018-12-07T03:32:03.009Z,14.90
2018-12-07T03:33:03.973Z,14.90
2018-12-07T03:34:05.101Z,14.90
2018-12-07T03:35:06.268Z,14.90
2018-12-07T03:36:07.440Z,14.90
2018-12-07T03:37:08.503Z,14.90
2018-12-07T03:38:09.467Z,14.90
2018-12-07T03:39:10.527Z,14.80
2018-12-07T03:40:11.595Z,14.80
2018-12-07T03:41:12.562Z,14.80
2018-12-07T03:42:13.516Z,14.80
2018-12-07T03:43:14.987Z,14.80
2018-12-07T03:44:15.950Z,14.80
2018-12-07T03:45:16.921Z,14.80
2018-12-07T03:46:17.995Z,14.80
2018-12-07T03:47:18.948Z,14.80
2018-12-07T03:48:20.047Z,14.80
2018-12-07T03:49:21.111Z,14.80
2018-12-07T03:50:22.101Z,14.70
2018-12-07T03:51:23.059Z,14.70
2018-12-07T03:52:24.131Z,14.80
2018-12-07T03:53:25.293Z,14.80
2018-12-07T03:54:26.273Z,14.80
2018-12-07T03:55:27.336Z,14.80
2018-12-07T03:56:28.327Z,14.80
2018-12-07T03:57:29.291Z,14.80
2018-12-07T03:58:30.267Z,14.80
2018-12-07T03:59:31.219Z,14.80
2018-12-07T04:00:32.278Z,14.80
2018-12-07T04:01:33.355Z,14.80
2018-12-07T04:02:34.516Z,14.80
2018-12-07T04:03:35.475Z,14.80
2018-12-07T04:04:36.571Z,14.80
2018-12-07T04:05:37.727Z,14.80
2018-12-07T04:06:38.811Z,14.80
2018-12-07T04:07:39.887Z,14.80
2018-12-07T04:08:40.859Z,14.80
2018-12-07T04:09:41.822Z,14.80
2018-12-07T04:10:42.780Z,14.80
2018-12-07T04:11:43.851Z,14.80
2018-12-07T04:12:44.816Z,14.80
2018-12-07T04:13:46.296Z,14.80
2018-12-07T04:14:47.405Z,14.80
2018-12-07T04:15:48.383Z,14.70
2018-12-07T04:16:51.611Z,14.70
2018-12-07T04:17:52.599Z,14.70
2018-12-07T04:18:53.707Z,14.70
2018-12-07T04:19:54.666Z,14.70
2018-12-07T04:20:55.727Z,14.70
2018-12-07T04:21:56.701Z,14.70
2018-12-07T04:23:04.724Z,14.60
2018-12-07T04:24:05.723Z,14.60
2018-12-07T04:25:06.986Z,14.60
2018-12-07T04:26:08.051Z,14.60
2018-12-07T04:27:09.008Z,14.60
2018-12-07T04:28:10.068Z,14.60
2018-12-07T04:29:11.023Z,14.60
2018-12-07T04:30:22.032Z,14.60
2018-12-07T04:31:22.992Z,14.60
2018-12-07T04:32:23.944Z,14.60
2018-12-07T04:33:25.038Z,14.60
2018-12-07T04:34:26.007Z,14.60
2018-12-07T04:35:26.997Z,14.60
2018-12-07T04:36:28.060Z,14.60
2018-12-07T04:37:29.004Z,14.60
2018-12-07T04:38:29.997Z,14.60
2018-12-07T04:39:31.069Z,14.70
2018-12-07T04:40:32.132Z,14.60
2018-12-07T04:41:33.200Z,14.70
2018-12-07T04:42:34.155Z,14.70
2018-12-07T04:43:35.125Z,14.60
2018-12-07T04:44:36.186Z,14.60
2018-12-07T04:45:37.162Z,14.70
2018-12-07T04:46:38.125Z,14.70
2018-12-07T04:47:39.227Z,14.70
2018-12-07T04:48:40.261Z,14.70
2018-12-07T04:49:41.225Z,14.70
2018-12-07T04:50:42.392Z,14.70
2018-12-07T04:51:43.351Z,14.70
2018-12-07T04:52:44.310Z,14.70
2018-12-07T04:53:45.268Z,14.70
2018-12-07T04:54:46.268Z,14.70
2018-12-07T04:55:47.288Z,14.70
2018-12-07T04:56:48.352Z,14.70
2018-12-07T04:57:49.532Z,14.70
2018-12-07T04:58:50.540Z,14.70
2018-12-07T04:59:51.501Z,14.70
2018-12-07T05:00:52.453Z,14.70
2018-12-07T05:01:53.811Z,14.70
2018-12-07T05:02:54.913Z,14.70
2018-12-07T05:03:55.885Z,14.70
2018-12-07T05:04:56.954Z,14.70
2018-12-07T05:05:57.969Z,14.70
2018-12-07T05:06:58.924Z,14.70
2018-12-07T05:07:59.976Z,14.70
2018-12-07T05:09:00.935Z,14.70
2018-12-07T05:10:02.519Z,14.70
2018-12-07T05:11:03.482Z,14.70
2018-12-07T05:12:04.436Z,14.70
2018-12-07T05:13:05.509Z,14.70
2018-12-07T05:14:06.490Z,14.70
2018-12-07T05:15:07.648Z,14.70
2018-12-07T05:16:08.605Z,14.70
2018-12-07T05:17:09.678Z,14.70
2018-12-07T05:18:10.640Z,14.70
2018-12-07T05:19:11.600Z,14.80
2018-12-07T05:20:12.662Z,14.80
2018-12-07T05:21:13.613Z,14.70
2018-12-07T05:22:14.774Z,14.80
2018-12-07T05:23:15.719Z,14.80
2018-12-07T05:24:16.681Z,14.80
2018-12-07T05:25:17.644Z,14.80
2018-12-07T05:26:18.809Z,14.80
2018-12-07T05:27:19.760Z,14.80
2018-12-07T05:28:20.714Z,14.80
2018-12-07T05:29:21.757Z,14.80
2018-12-07T05:30:22.708Z,14.80
2018-12-07T05:31:23.668Z,14.80
2018-12-07T05:32:24.796Z,14.80
2018-12-07T05:33:25.773Z,14.80
2018-12-07T05:34:26.751Z,14.80
2018-12-07T05:35:27.704Z,14.80
2018-12-07T05:36:28.831Z,14.80
2018-12-07T05:37:29.875Z,14.90
2018-12-07T05:38:30.983Z,14.80
2018-12-07T05:39:32.032Z,14.80
2018-12-07T05:40:32.997Z,14.80
2018-12-07T05:41:34.071Z,14.80
2018-12-07T05:42:35.011Z,14.90
2018-12-07T05:43:39.975Z,14.80
2018-12-07T05:44:41.052Z,14.80
2018-12-07T05:45:42.120Z,14.80
2018-12-07T05:46:43.385Z,14.80
2018-12-07T05:47:44.439Z,14.80
2018-12-07T05:48:45.395Z,14.80
2018-12-07T05:49:46.464Z,14.80
2018-12-07T05:50:47.455Z,14.80
2018-12-07T05:51:48.639Z,14.80
2018-12-07T05:52:49.640Z,14.70
2018-12-07T05:53:50.699Z,14.70
2018-12-07T05:54:51.785Z,14.70
2018-12-07T05:55:52.832Z,14.70
2018-12-07T05:56:53.895Z,14.70
2018-12-07T05:57:54.939Z,14.70
2018-12-07T05:58:55.968Z,14.70
2018-12-07T05:59:57.140Z,14.70
2018-12-07T06:00:58.189Z,14.70
2018-12-07T06:01:59.292Z,14.70
2018-12-07T06:03:00.344Z,14.70
2018-12-07T06:04:01.419Z,14.70
2018-12-07T06:05:03.192Z,14.70
2018-12-07T06:06:04.188Z,14.70
2018-12-07T06:07:05.168Z,14.70
2018-12-07T06:08:06.227Z,14.60
2018-12-07T06:09:07.298Z,14.60
2018-12-07T06:10:08.367Z,14.70
2018-12-07T06:11:09.320Z,14.70
2018-12-07T06:12:10.280Z,14.70
2018-12-07T06:13:11.355Z,14.70
2018-12-07T06:14:12.468Z,14.70
2018-12-07T06:15:13.437Z,14.70
2018-12-07T06:16:14.481Z,14.70
2018-12-07T06:17:15.433Z,14.70
2018-12-07T06:18:16.392Z,14.70
2018-12-07T06:19:17.371Z,14.70
2018-12-07T06:20:18.395Z,14.70
2018-12-07T06:21:19.356Z,14.80
2018-12-07T06:22:20.348Z,14.80
2018-12-07T06:23:21.308Z,14.80
2018-12-07T06:24:22.264Z,14.80
2018-12-07T06:25:23.238Z,14.80
2018-12-07T06:26:24.208Z,14.80
2018-12-07T06:27:25.168Z,14.80
2018-12-07T06:28:26.127Z,14.80
2018-12-07T06:29:27.074Z,14.80
2018-12-07T06:30:28.136Z,14.80
2018-12-07T06:31:29.110Z,14.80
2018-12-07T06:32:36.140Z,14.80
2018-12-07T06:33:33.256Z,14.80
2018-12-07T06:34:34.354Z,14.80
2018-12-07T06:35:35.324Z,14.80
2018-12-07T06:36:36.307Z,14.80
2018-12-07T06:37:37.345Z,14.80
2018-12-07T06:38:38.448Z,14.90
2018-12-07T06:39:39.417Z,14.90
2018-12-07T06:40:40.473Z,14.90
2018-12-07T06:41:41.467Z,14.90
2018-12-07T06:42:42.421Z,14.90
2018-12-07T06:43:43.365Z,14.80
2018-12-07T06:44:44.455Z,14.90
2018-12-07T06:45:45.431Z,14.80
2018-12-07T06:46:46.591Z,14.80
2018-12-07T06:47:47.547Z,14.80
2018-12-07T06:49:04.072Z,14.80
2018-12-07T06:50:06.800Z,14.80
2018-12-07T06:51:07.875Z,14.80
2018-12-07T06:52:08.832Z,14.80
2018-12-07T06:53:09.820Z,14.80
2018-12-07T06:54:11.004Z,14.80
2018-12-07T06:55:11.973Z,14.80
2018-12-07T06:56:12.929Z,14.80
2018-12-07T06:57:13.884Z,14.80
2018-12-07T06:58:14.897Z,14.80
2018-12-07T06:59:15.863Z,14.80
2018-12-07T07:00:17.036Z,14.80
2018-12-07T07:01:17.995Z,14.80
2018-12-07T07:02:18.951Z,14.80
2018-12-07T07:03:19.907Z,14.80
2018-12-07T07:04:20.898Z,14.80
2018-12-07T07:05:21.976Z,14.80
2018-12-07T07:06:23.146Z,14.80
2018-12-07T07:07:24.185Z,14.80
2018-12-07T07:08:25.150Z,14.80
2018-12-07T07:09:26.315Z,14.80
2018-12-07T07:10:27.389Z,14.80
2018-12-07T07:11:28.554Z,14.80
2018-12-07T07:12:29.522Z,14.80
2018-12-07T07:13:30.519Z,14.80
2018-12-07T07:14:31.607Z,14.80
2018-12-07T07:15:32.585Z,14.80
2018-12-07T07:16:40.512Z,14.80
2018-12-07T07:17:41.472Z,14.70
2018-12-07T07:18:42.436Z,14.70
2018-12-07T07:19:43.399Z,14.80
2018-12-07T07:20:44.469Z,14.70
2018-12-07T07:21:45.458Z,14.70
2018-12-07T07:22:46.435Z,14.70
2018-12-07T07:23:47.460Z,14.70
2018-12-07T07:24:48.443Z,14.80
2018-12-07T07:25:49.508Z,14.70
2018-12-07T07:26:50.547Z,14.70
2018-12-07T07:27:51.503Z,14.70
2018-12-07T07:28:52.596Z,14.70
2018-12-07T07:29:53.598Z,14.70
2018-12-07T07:30:54.727Z,14.70
2018-12-07T07:31:55.687Z,14.70
2018-12-07T07:32:56.651Z,14.70
2018-12-07T07:33:57.600Z,14.70
2018-12-07T07:34:58.563Z,14.70
2018-12-07T07:35:59.517Z,14.70
2018-12-07T07:37:00.483Z,14.70
2018-12-07T07:38:01.506Z,14.70
2018-12-07T07:39:05.198Z,14.70
2018-12-07T07:40:13.492Z,14.70
2018-12-07T07:41:14.564Z,14.70
2018-12-07T07:42:15.521Z,14.70
2018-12-07T07:43:16.536Z,14.70
2018-12-07T07:44:17.593Z,14.70
2018-12-07T07:45:19.092Z,14.60
2018-12-07T07:46:20.087Z,14.60
2018-12-07T07:47:21.039Z,14.60
2018-12-07T07:48:22.003Z,14.60
2018-12-07T07:49:22.948Z,14.60
2018-12-07T07:50:23.931Z,14.60
2018-12-07T07:51:24.907Z,14.60
2018-12-07T07:52:25.862Z,14.60
2018-12-07T07:53:26.868Z,14.60
2018-12-07T07:54:27.948Z,14.60
2018-12-07T07:55:28.907Z,14.70
2018-12-07T07:56:29.867Z,14.60
2018-12-07T07:57:30.824Z,14.70
2018-12-07T07:58:32.059Z,14.70
2018-12-07T07:59:33.029Z,14.70
2018-12-07T08:00:34.124Z,14.70
2018-12-07T08:01:35.080Z,14.70
2018-12-07T08:02:36.213Z,14.70
2018-12-07T08:03:37.168Z,14.70
2018-12-07T08:04:38.135Z,14.70
2018-12-07T08:05:39.130Z,14.70
2018-12-07T08:06:40.191Z,14.70
2018-12-07T08:07:41.255Z,14.60
2018-12-07T08:08:42.336Z,14.70
2018-12-07T08:09:43.297Z,14.70
2018-12-07T08:10:44.370Z,14.70
2018-12-07T08:11:45.463Z,14.70
2018-12-07T08:12:46.516Z,14.70
2018-12-07T08:13:47.548Z,14.70
2018-12-07T08:14:48.743Z,14.70
2018-12-07T08:15:49.715Z,14.60
2018-12-07T08:16:50.677Z,14.60
2018-12-07T08:17:51.655Z,14.60
2018-12-07T08:18:52.767Z,14.70
2018-12-07T08:19:53.726Z,14.70
2018-12-07T08:20:54.677Z,14.70
2018-12-07T08:21:55.646Z,14.70
2018-12-07T08:22:56.647Z,14.70
2018-12-07T08:23:57.821Z,14.70
2018-12-07T08:24:58.882Z,14.70
2018-12-07T08:25:59.882Z,14.70
2018-12-07T08:27:00.971Z,14.80
2018-12-07T08:28:02.183Z,14.80
2018-12-07T08:29:03.355Z,14.80
2018-12-07T08:30:07.728Z,14.80
2018-12-07T08:31:08.796Z,14.80
2018-12-07T08:32:09.938Z,14.80
2018-12-07T08:33:10.948Z,14.80
2018-12-07T08:34:11.915Z,14.80
2018-12-07T08:35:12.998Z,14.80
2018-12-07T08:36:13.968Z,14.80
2018-12-07T08:37:15.040Z,14.80
2018-12-07T08:38:16.135Z,14.80
2018-12-07T08:39:17.208Z,14.80
2018-12-07T08:40:18.180Z,14.80
2018-12-07T08:41:19.336Z,14.70
2018-12-07T08:42:20.413Z,14.70
2018-12-07T08:43:21.495Z,14.80
2018-12-07T08:44:22.459Z,14.80
2018-12-07T08:45:23.427Z,14.80
2018-12-07T08:46:24.405Z,14.80
2018-12-07T08:47:25.407Z,14.80
2018-12-07T08:48:26.455Z,14.80
2018-12-07T08:49:33.592Z,14.80
2018-12-07T08:50:34.686Z,14.70
2018-12-07T08:51:36.157Z,14.70
2018-12-07T08:52:37.134Z,14.70
2018-12-07T08:53:38.168Z,14.70
2018-12-07T08:54:39.306Z,14.60
2018-12-07T08:55:40.333Z,14.70
2018-12-07T08:56:41.308Z,14.80
2018-12-07T08:57:42.376Z,14.80
2018-12-07T08:58:43.368Z,14.80
2018-12-07T08:59:44.554Z,14.80
2018-12-07T09:00:45.703Z,14.80
2018-12-07T09:01:46.724Z,14.80
2018-12-07T09:02:47.724Z,14.80
2018-12-07T09:03:48.701Z,14.80
2018-12-07T09:04:49.760Z,14.90
2018-12-07T09:05:51.003Z,14.80
2018-12-07T09:06:51.980Z,14.70
2018-12-07T09:07:52.943Z,14.70
2018-12-07T09:08:53.912Z,14.70
2018-12-07T09:09:54.872Z,14.70
2018-12-07T09:10:55.935Z,14.70
2018-12-07T09:11:56.900Z,14.60
2018-12-07T09:12:57.922Z,14.70
2018-12-07T09:13:59.076Z,14.70
2018-12-07T09:15:00.063Z,14.70
2018-12-07T09:16:01.060Z,14.70
2018-12-07T09:17:02.603Z,14.70
2018-12-07T09:18:03.850Z,14.70
2018-12-07T09:19:05.080Z,14.60
2018-12-07T09:20:06.293Z,14.70
2018-12-07T09:21:07.371Z,14.60
2018-12-07T09:22:08.348Z,14.60
2018-12-07T09:23:09.361Z,14.60
2018-12-07T09:24:10.351Z,14.60
2018-12-07T09:25:11.406Z,14.80
2018-12-07T09:26:12.451Z,14.60
2018-12-07T09:27:13.505Z,14.70
2018-12-07T09:28:14.492Z,14.60
2018-12-07T09:29:15.735Z,14.60
2018-12-07T09:30:16.703Z,14.60
2018-12-07T09:31:17.784Z,14.60
2018-12-07T09:32:18.853Z,14.60
2018-12-07T09:33:19.827Z,14.60
2018-12-07T09:34:21.004Z,14.60
2018-12-07T09:35:21.955Z,14.60
2018-12-07T09:36:22.927Z,14.60
2018-12-07T09:37:23.983Z,14.60
2018-12-07T09:38:25.044Z,14.60
2018-12-07T09:39:26.024Z,14.60
2018-12-07T09:40:27.083Z,14.70
2018-12-07T09:41:28.078Z,14.60
2018-12-07T09:42:29.243Z,14.60
2018-12-07T09:43:30.307Z,14.60
2018-12-07T09:44:31.473Z,14.70
2018-12-07T09:45:32.587Z,14.60
2018-12-07T09:46:33.776Z,14.70
2018-12-07T09:47:34.836Z,14.70
2018-12-07T09:48:35.798Z,14.70
2018-12-07T09:49:36.803Z,14.70
2018-12-07T09:50:37.765Z,14.70
2018-12-07T09:51:38.751Z,14.60
2018-12-07T09:52:39.827Z,14.70
2018-12-07T09:53:41.104Z,14.70
2018-12-07T09:54:42.143Z,14.70
2018-12-07T09:55:43.102Z,14.70
2018-12-07T09:56:44.088Z,14.60
2018-12-07T09:57:45.057Z,14.70
2018-12-07T09:58:46.024Z,14.60
2018-12-07T09:59:46.981Z,14.50
2018-12-07T10:00:48.160Z,14.60
2018-12-07T10:01:49.149Z,14.60
2018-12-07T10:02:50.093Z,14.60
2018-12-07T10:03:51.172Z,14.60
2018-12-07T10:04:52.135Z,14.50
2018-12-07T10:05:53.107Z,14.50
2018-12-07T10:06:54.075Z,14.60
2018-12-07T10:07:55.146Z,14.50
2018-12-07T10:08:56.092Z,14.50
2018-12-07T10:09:57.067Z,14.50
2018-12-07T10:10:58.111Z,14.60
2018-12-07T10:11:59.109Z,14.60
2018-12-07T10:13:00.073Z,14.60
2018-12-07T10:14:01.031Z,14.60
2018-12-07T10:15:02.216Z,14.60
2018-12-07T10:16:03.329Z,14.60
2018-12-07T10:17:04.432Z,14.50
2018-12-07T10:18:05.431Z,14.60
2018-12-07T10:19:06.407Z,14.60
2018-12-07T10:20:07.467Z,14.50
2018-12-07T10:21:08.463Z,14.50
2018-12-07T10:22:09.453Z,14.50
2018-12-07T10:23:10.425Z,14.50
2018-12-07T10:24:11.404Z,14.50
2018-12-07T10:25:12.460Z,14.50
2018-12-07T10:26:13.420Z,14.60
2018-12-07T10:27:14.387Z,14.50
2018-12-07T10:28:15.336Z,14.50
2018-12-07T10:29:16.692Z,14.50
2018-12-07T10:30:17.719Z,14.50
2018-12-07T10:31:18.707Z,14.50
2018-12-07T10:32:19.663Z,14.40
2018-12-07T10:33:20.653Z,14.40
2018-12-07T10:34:21.604Z,14.40
2018-12-07T10:35:22.636Z,14.40
2018-12-07T10:36:23.720Z,14.40
2018-12-07T10:37:24.703Z,14.40
2018-12-07T10:38:25.674Z,14.40
2018-12-07T10:39:26.633Z,14.40
2018-12-07T10:40:27.687Z,14.50
2018-12-07T10:41:28.855Z,14.50
2018-12-07T10:42:29.849Z,14.60
2018-12-07T10:43:31.009Z,14.60
2018-12-07T10:44:32.066Z,14.60
2018-12-07T10:45:33.182Z,14.70
2018-12-07T10:46:34.315Z,14.70
2018-12-07T10:47:35.396Z,14.70
2018-12-07T10:48:36.479Z,14.70
2018-12-07T10:49:37.455Z,14.70
2018-12-07T10:50:38.416Z,14.70
2018-12-07T10:51:39.471Z,14.70
2018-12-07T10:52:40.478Z,14.70
2018-12-07T10:53:41.525Z,14.70
2018-12-07T10:54:42.599Z,14.70
2018-12-07T10:55:43.571Z,14.70
2018-12-07T10:56:44.538Z,14.70
2018-12-07T10:57:45.603Z,14.70
2018-12-07T10:58:46.701Z,14.70
2018-12-07T10:59:47.689Z,14.80
2018-12-07T11:01:01.808Z,14.80
2018-12-07T11:02:09.111Z,14.80
2018-12-07T11:03:16.451Z,14.80
2018-12-07T11:04:23.443Z,14.90
2018-12-07T11:05:30.576Z,14.90
2018-12-07T11:06:37.899Z,14.90
2018-12-07T11:07:45.180Z,14.90
2018-12-07T11:08:52.398Z,14.90
2018-12-07T11:09:59.445Z,14.90
2018-12-07T11:11:02.744Z,14.90
2018-12-07T11:12:10.027Z,14.90
2018-12-07T11:13:17.067Z,15.00
2018-12-07T11:14:20.271Z,15.00
2018-12-07T11:17:02.695Z,15.00
2018-12-07T11:18:09.728Z,15.00
2018-12-07T11:19:16.838Z,15.10
2018-12-07T11:20:24.133Z,15.00
2018-12-07T11:21:31.284Z,15.10
2018-12-07T11:22:38.231Z,15.00
2018-12-07T11:25:26.228Z,14.90
2018-12-07T11:26:33.348Z,15.00
2018-12-07T11:27:40.648Z,15.00
2018-12-07T11:28:43.723Z,15.00
2018-12-07T11:31:28.179Z,15.00
2018-12-07T11:32:31.459Z,14.90
2018-12-07T11:33:35.319Z,14.90
2018-12-07T11:34:36.608Z,15.00
2018-12-07T11:35:37.805Z,14.80
2018-12-07T11:36:38.781Z,14.80
2018-12-07T11:37:39.735Z,14.80
2018-12-07T11:38:40.695Z,14.80
2018-12-07T11:39:41.778Z,14.80
2018-12-07T11:40:42.844Z,14.80
2018-12-07T11:41:43.920Z,14.80
2018-12-07T11:42:44.972Z,14.80
2018-12-07T11:43:45.933Z,14.80
2018-12-07T11:44:46.912Z,14.80
2018-12-07T11:45:47.968Z,14.80
2018-12-07T11:46:48.971Z,14.80
2018-12-07T11:47:49.979Z,14.80
2018-12-07T11:48:50.947Z,14.80
2018-12-07T11:49:52.035Z,14.90
2018-12-07T11:50:53.111Z,14.80
2018-12-07T11:51:54.064Z,14.80
2018-12-07T11:53:02.023Z,14.90
2018-12-07T11:54:03.193Z,14.90
2018-12-07T11:55:04.591Z,14.90
2018-12-07T11:56:05.675Z,14.90
2018-12-07T11:57:06.736Z,14.90
2018-12-07T11:58:07.737Z,15.00
2018-12-07T11:59:08.707Z,15.00
2018-12-07T12:00:09.891Z,15.00
2018-12-07T12:01:10.984Z,15.00
2018-12-07T12:02:12.051Z,15.10
2018-12-07T12:03:13.011Z,15.10
2018-12-07T12:04:13.971Z,15.10
2018-12-07T12:05:14.963Z,15.00
2018-12-07T12:06:16.034Z,15.00
2018-12-07T12:07:17.005Z,15.00
2018-12-07T12:08:17.979Z,15.00
2018-12-07T12:09:19.039Z,15.00
2018-12-07T12:10:20.011Z,15.00
2018-12-07T12:11:20.972Z,14.90
2018-12-07T12:12:21.927Z,14.90
2018-12-07T12:13:22.912Z,15.00
2018-12-07T12:14:23.900Z,14.90
2018-12-07T12:15:24.974Z,14.90
2018-12-07T12:16:26.047Z,14.90
2018-12-07T12:17:27.056Z,15.00
2018-12-07T12:18:28.123Z,15.00
2018-12-07T12:19:29.084Z,15.00
2018-12-07T12:20:30.151Z,15.00
2018-12-07T12:21:31.214Z,15.00
2018-12-07T12:22:32.176Z,15.00
2018-12-07T12:23:33.135Z,15.00
2018-12-07T12:24:34.107Z,15.00
2018-12-07T12:25:35.193Z,15.00
2018-12-07T12:26:36.204Z,15.00
2018-12-07T12:27:37.160Z,15.00
2018-12-07T12:28:38.206Z,15.00
2018-12-07T12:29:39.176Z,14.90
2018-12-07T12:30:40.148Z,14.90
2018-12-07T12:31:41.116Z,14.90
2018-12-07T12:32:42.280Z,14.90
2018-12-07T12:33:43.235Z,14.90
2018-12-07T12:34:44.217Z,14.90
2018-12-07T12:35:45.289Z,14.90
2018-12-07T12:36:46.300Z,14.90
2018-12-07T12:37:47.368Z,14.90
2018-12-07T12:38:48.443Z,14.90
2018-12-07T12:39:49.489Z,14.90
2018-12-07T12:40:50.459Z,15.00
2018-12-07T12:41:51.446Z,15.00
2018-12-07T12:42:52.516Z,15.00
2018-12-07T12:43:53.588Z,15.00
2018-12-07T12:44:54.715Z,15.00
2018-12-07T12:45:55.715Z,15.10
2018-12-07T12:46:56.785Z,15.10
2018-12-07T12:47:57.852Z,15.00
2018-12-07T12:48:59.031Z,15.00
2018-12-07T12:49:59.999Z,15.00
2018-12-07T12:51:00.975Z,15.00
2018-12-07T12:52:02.003Z,14.90
2018-12-07T12:53:03.172Z,15.00
2018-12-07T12:54:04.235Z,14.90
2018-12-07T12:55:05.296Z,14.90
2018-12-07T12:56:06.377Z,14.90
2018-12-07T12:57:07.380Z,14.90
2018-12-07T12:58:08.354Z,14.90
2018-12-07T12:59:09.336Z,14.90
2018-12-07T13:00:10.316Z,14.90
2018-12-07T13:01:11.388Z,14.90
2018-12-07T13:02:12.456Z,14.80
2018-12-07T13:03:13.564Z,14.80
2018-12-07T13:04:14.642Z,14.80
2018-12-07T13:05:15.623Z,14.80
2018-12-07T13:06:16.735Z,14.80
2018-12-07T13:07:17.802Z,14.90
2018-12-07T13:08:18.869Z,14.80
2018-12-07T13:09:19.835Z,14.80
2018-12-07T13:10:20.939Z,14.80
2018-12-07T13:11:22.004Z,14.80
2018-12-07T13:12:23.080Z,14.80
2018-12-07T13:13:24.264Z,14.80
2018-12-07T13:14:25.452Z,14.80
2018-12-07T13:15:26.502Z,14.80